createdAt,value
2022-10-01T00:00:15.744Z,96.30
2022-10-01T00:01:20.934Z,96.30
2022-10-01T00:02:23.567Z,96.30
2022-10-01T00:03:29.206Z,96.30
2022-10-01T00:04:36.281Z,96.30
2022-10-01T00:05:39.723Z,96.30
2022-10-01T00:06:42.071Z,96.30
2022-10-01T00:07:46.392Z,96.30
2022-10-01T00:08:50.911Z,96.30
2022-10-01T00:09:54.189Z,96.30
2022-10-01T00:10:57.940Z,96.30
2022-10-01T00:12:01.667Z,96.30
2022-10-01T00:13:04.010Z,96.30
2022-10-01T00:14:08.768Z,96.30
2022-10-01T00:15:13.526Z,96.30
2022-10-01T00:16:23.110Z,96.30
2022-10-01T00:17:25.819Z,96.30
2022-10-01T00:18:30.984Z,96.30
2022-10-01T00:19:33.347Z,96.30
2022-10-01T00:20:36.697Z,96.30
2022-10-01T00:21:38.985Z,96.30
2022-10-01T00:22:42.580Z,96.30
2022-10-01T00:23:46.149Z,96.30
2022-10-01T00:24:49.833Z,96.30
2022-10-01T00:25:52.240Z,96.30
2022-10-01T00:26:55.598Z,96.30
2022-10-01T00:27:57.952Z,96.30
2022-10-01T00:29:04.748Z,96.30
2022-10-01T00:30:10.319Z,96.30
2022-10-01T00:31:15.921Z,96.30
2022-10-01T00:32:18.352Z,96.30
2022-10-01T00:33:21.835Z,96.30
2022-10-01T00:34:26.885Z,96.30
2022-10-01T00:35:30.958Z,96.30
2022-10-01T00:36:34.739Z,96.30
2022-10-01T00:37:38.730Z,96.30
2022-10-01T00:38:42.296Z,96.30
2022-10-01T00:39:48.007Z,96.30
2022-10-01T00:40:50.530Z,96.30
2022-10-01T00:41:53.903Z,96.30
2022-10-01T00:42:56.194Z,96.30
2022-10-01T00:44:04.495Z,96.30
2022-10-01T00:45:11.139Z,96.30
2022-10-01T00:46:21.724Z,96.30
2022-10-01T00:47:31.781Z,96.30
2022-10-01T00:48:48.923Z,96.30
2022-10-01T00:49:59.344Z,96.30
2022-10-01T00:51:03.567Z,96.30
2022-10-01T00:52:13.865Z,96.30
2022-10-01T00:53:19.557Z,96.30
2022-10-01T00:54:31.228Z,96.30
2022-10-01T00:55:37.467Z,96.30
2022-10-01T00:56:40.829Z,96.30
2022-10-01T00:57:46.273Z,96.30
2022-10-01T00:58:56.054Z,96.30
2022-10-01T01:00:07.328Z,96.30
2022-10-01T01:01:11.254Z,96.30
2022-10-01T01:02:14.959Z,96.30
2022-10-01T01:03:17.841Z,96.30
2022-10-01T01:04:21.237Z,96.30
2022-10-01T01:05:24.384Z,96.30
2022-10-01T01:06:27.935Z,96.30
2022-10-01T01:07:32.120Z,96.30
2022-10-01T01:08:36.181Z,96.30
2022-10-01T01:09:43.885Z,96.30
2022-10-01T01:10:59.546Z,96.30
2022-10-01T01:12:15.446Z,96.30
2022-10-01T01:13:30.273Z,96.30
2022-10-01T01:14:42.077Z,96.30
2022-10-01T01:15:56.179Z,96.30
2022-10-01T01:17:08.745Z,96.30
2022-10-01T01:18:19.528Z,96.30
2022-10-01T01:19:39.170Z,96.30
2022-10-01T01:21:14.178Z,96.30
2022-10-01T01:22:18.786Z,96.30
2022-10-01T01:24:11.254Z,96.30
2022-10-01T01:25:19.493Z,96.30
2022-10-01T01:26:35.188Z,96.30
2022-10-01T01:27:43.208Z,96.30
2022-10-01T01:28:51.577Z,96.30
2022-10-01T01:30:01.327Z,96.30
2022-10-01T01:31:10.712Z,96.30
2022-10-01T01:32:25.224Z,96.30
2022-10-01T01:33:32.386Z,96.30
2022-10-01T01:34:38.397Z,96.30
2022-10-01T01:35:46.896Z,96.30
2022-10-01T01:36:58.646Z,96.30
2022-10-01T01:38:07.763Z,96.30
2022-10-01T01:39:13.286Z,96.30
2022-10-01T01:40:18.644Z,96.30
2022-10-01T01:41:25.472Z,96.30
2022-10-01T01:42:37.133Z,96.30
2022-10-01T01:43:45.363Z,96.30
2022-10-01T01:44:53.272Z,96.30
2022-10-01T01:45:59.424Z,96.30
2022-10-01T01:47:05.365Z,96.30
2022-10-01T01:48:10.065Z,96.30
2022-10-01T01:49:14.325Z,96.30
2022-10-01T01:50:18.911Z,96.30
2022-10-01T01:51:29.266Z,96.30
2022-10-01T01:52:33.784Z,96.30
2022-10-01T01:53:36.519Z,96.30
2022-10-01T01:54:40.631Z,96.30
2022-10-01T01:55:45.060Z,96.30
2022-10-01T01:56:50.293Z,96.30
2022-10-01T01:57:55.301Z,96.30
2022-10-01T01:59:01.101Z,96.30
2022-10-01T02:00:11.877Z,96.30
2022-10-01T02:01:34.686Z,96.30
2022-10-01T02:02:41.553Z,96.30
2022-10-01T02:03:44.191Z,96.30
2022-10-01T02:04:54.650Z,96.30
2022-10-01T02:06:11.974Z,96.30
2022-10-01T02:07:48.205Z,96.30
2022-10-01T02:09:03.770Z,96.30
2022-10-01T02:10:23.011Z,96.30
2022-10-01T02:11:33.201Z,96.30
2022-10-01T02:12:52.132Z,96.30
2022-10-01T02:14:10.972Z,96.30
2022-10-01T02:15:26.200Z,96.30
2022-10-01T02:16:37.794Z,96.30
2022-10-01T02:17:55.156Z,96.30
2022-10-01T02:19:05.259Z,96.30
2022-10-01T02:20:15.552Z,96.30
2022-10-01T02:21:23.752Z,96.30
2022-10-01T02:22:40.334Z,96.30
2022-10-01T02:23:49.970Z,96.30
2022-10-01T02:24:57.521Z,96.30
2022-10-01T02:26:08.258Z,96.30
2022-10-01T02:27:21.724Z,96.30
2022-10-01T02:28:25.091Z,96.30
2022-10-01T02:29:29.849Z,96.30
2022-10-01T02:30:36.842Z,96.30
2022-10-01T02:31:42.437Z,96.30
2022-10-01T02:32:50.119Z,96.30
2022-10-01T02:34:01.417Z,96.30
2022-10-01T02:35:14.392Z,96.30
2022-10-01T02:36:20.510Z,96.30
2022-10-01T02:37:26.271Z,96.30
2022-10-01T02:38:30.435Z,96.30
2022-10-01T02:39:34.205Z,96.30
2022-10-01T02:40:45.558Z,96.30
2022-10-01T02:41:50.383Z,96.30
2022-10-01T02:42:59.342Z,96.30
2022-10-01T02:44:10.116Z,96.30
2022-10-01T02:45:18.734Z,96.30
2022-10-01T02:46:29.665Z,96.30
2022-10-01T02:47:38.562Z,96.30
2022-10-01T02:48:41.617Z,96.30
2022-10-01T02:49:45.398Z,96.30
2022-10-01T02:50:51.630Z,96.30
2022-10-01T02:52:03.588Z,96.30
2022-10-01T02:53:10.949Z,96.30
2022-10-01T02:54:20.086Z,96.30
2022-10-01T02:55:28.675Z,96.30
2022-10-01T02:56:52.290Z,96.30
2022-10-01T02:57:58.625Z,96.30
2022-10-01T02:59:01.236Z,96.30
2022-10-01T03:00:10.141Z,96.30
2022-10-01T03:01:12.583Z,96.30
2022-10-01T03:02:17.835Z,96.30
2022-10-01T03:03:20.277Z,96.30
2022-10-01T03:04:23.876Z,96.30
2022-10-01T03:05:26.601Z,96.30
2022-10-01T03:06:30.292Z,96.30
2022-10-01T03:07:35.850Z,96.30
2022-10-01T03:08:39.292Z,96.30
2022-10-01T03:09:42.796Z,96.30
2022-10-01T03:10:46.976Z,96.30
2022-10-01T03:11:49.496Z,96.30
2022-10-01T03:12:53.146Z,96.30
2022-10-01T03:13:55.569Z,96.30
2022-10-01T03:14:58.994Z,96.30
2022-10-01T03:16:02.174Z,96.30
2022-10-01T03:17:05.988Z,96.30
2022-10-01T03:18:09.887Z,96.30
2022-10-01T03:19:13.450Z,96.30
2022-10-01T03:20:16.529Z,96.30
2022-10-01T03:21:20.037Z,96.30
2022-10-01T03:22:25.284Z,96.30
2022-10-01T03:23:28.038Z,96.30
2022-10-01T03:24:31.500Z,96.30
2022-10-01T03:25:36.588Z,96.30
2022-10-01T03:26:40.289Z,96.30
2022-10-01T03:27:43.191Z,96.30
2022-10-01T03:28:46.820Z,96.30
2022-10-01T03:29:49.900Z,96.30
2022-10-01T03:30:54.065Z,96.30
2022-10-01T03:31:57.720Z,96.30
2022-10-01T03:33:03.417Z,96.30
2022-10-01T03:34:10.594Z,96.30
2022-10-01T03:35:14.324Z,96.30
2022-10-01T03:36:17.907Z,96.30
2022-10-01T03:37:20.479Z,96.30
2022-10-01T03:38:23.950Z,96.30
2022-10-01T03:39:26.608Z,96.30
2022-10-01T03:40:33.226Z,96.30
2022-10-01T03:41:37.139Z,96.30
2022-10-01T03:42:39.637Z,96.30
2022-10-01T03:43:43.023Z,96.30
2022-10-01T03:44:45.429Z,96.30
2022-10-01T03:45:49.151Z,96.30
2022-10-01T03:46:54.595Z,96.30
2022-10-01T03:47:58.009Z,96.30
2022-10-01T03:49:01.132Z,96.30
2022-10-01T03:50:07.562Z,96.30
2022-10-01T03:51:10.164Z,96.30
2022-10-01T03:52:13.614Z,96.30
2022-10-01T03:53:18.638Z,96.30
2022-10-01T03:54:22.597Z,96.30
2022-10-01T03:55:25.353Z,96.30
2022-10-01T03:56:31.371Z,96.30
2022-10-01T03:57:33.692Z,96.30
2022-10-01T03:58:39.107Z,96.30
2022-10-01T03:59:41.770Z,96.30
2022-10-01T04:00:47.220Z,96.30
2022-10-01T04:01:50.719Z,96.30
2022-10-01T04:02:53.541Z,96.30
2022-10-01T04:03:56.906Z,96.30
2022-10-01T04:04:59.346Z,96.30
2022-10-01T04:06:04.541Z,96.30
2022-10-01T04:07:06.922Z,96.30
2022-10-01T04:08:10.853Z,96.30
2022-10-01T04:09:15.888Z,96.30
2022-10-01T04:10:21.646Z,96.30
2022-10-01T04:11:24.767Z,96.30
2022-10-01T04:12:29.784Z,96.30
2022-10-01T04:13:37.834Z,96.30
2022-10-01T04:14:42.673Z,96.30
2022-10-01T04:15:48.609Z,96.30
2022-10-01T04:16:52.514Z,96.30
2022-10-01T04:17:55.172Z,96.30
2022-10-01T04:19:00.756Z,96.30
2022-10-01T04:20:03.614Z,96.30
2022-10-01T04:21:08.616Z,96.30
2022-10-01T04:22:11.069Z,96.30
2022-10-01T04:23:14.762Z,96.30
2022-10-01T04:24:17.299Z,96.30
2022-10-01T04:25:20.650Z,96.30
2022-10-01T04:26:25.635Z,96.30
2022-10-01T04:27:29.065Z,96.30
2022-10-01T04:28:32.142Z,96.30
2022-10-01T04:29:39.987Z,96.30
2022-10-01T04:30:45.662Z,96.30
2022-10-01T04:31:49.269Z,96.30
2022-10-01T04:32:51.765Z,96.30
2022-10-01T04:33:57.338Z,96.30
2022-10-01T04:35:04.278Z,96.30
2022-10-01T04:36:09.622Z,96.30
2022-10-01T04:37:12.095Z,96.30
2022-10-01T04:38:18.070Z,96.30
2022-10-01T04:39:20.394Z,96.30
2022-10-01T04:40:24.022Z,96.30
2022-10-01T04:41:27.459Z,96.30
2022-10-01T04:42:29.887Z,96.30
2022-10-01T04:43:33.333Z,96.30
2022-10-01T04:44:36.034Z,96.30
2022-10-01T04:45:42.306Z,96.30
2022-10-01T04:46:44.756Z,96.30
2022-10-01T04:47:52.930Z,96.30
2022-10-01T04:48:55.580Z,96.30
2022-10-01T04:49:59.027Z,96.30
2022-10-01T04:51:01.478Z,96.30
2022-10-01T04:52:07.088Z,96.30
2022-10-01T04:53:11.818Z,96.30
2022-10-01T04:54:15.091Z,96.30
2022-10-01T04:55:19.673Z,96.30
2022-10-01T04:56:23.184Z,96.30
2022-10-01T04:57:29.913Z,96.30
2022-10-01T04:58:33.175Z,96.30
2022-10-01T04:59:35.623Z,96.30
2022-10-01T05:00:39.273Z,96.30
2022-10-01T05:01:42.275Z,96.30
2022-10-01T05:02:49.763Z,96.30
2022-10-01T05:03:53.063Z,96.30
2022-10-01T05:05:00.535Z,96.30
2022-10-01T05:06:05.622Z,96.30
2022-10-01T05:07:11.837Z,96.30
2022-10-01T05:08:15.948Z,96.30
2022-10-01T05:09:18.507Z,96.30
2022-10-01T05:10:24.950Z,96.30
2022-10-01T05:11:27.564Z,96.30
2022-10-01T05:12:32.945Z,96.30
2022-10-01T05:13:36.353Z,96.30
2022-10-01T05:14:40.956Z,96.30
2022-10-01T05:15:44.409Z,96.30
2022-10-01T05:16:47.124Z,96.30
2022-10-01T05:17:50.547Z,96.30
2022-10-01T05:18:54.774Z,96.30
2022-10-01T05:19:58.170Z,96.30
2022-10-01T05:21:06.132Z,96.30
2022-10-01T05:22:10.681Z,96.30
2022-10-01T05:23:16.485Z,96.30
2022-10-01T05:24:19.034Z,96.30
2022-10-01T05:25:22.804Z,96.30
2022-10-01T05:26:29.747Z,96.30
2022-10-01T05:27:36.517Z,96.30
2022-10-01T05:28:44.363Z,96.30
2022-10-01T05:29:48.542Z,96.30
2022-10-01T05:30:51.304Z,96.30
2022-10-01T05:31:57.771Z,96.30
2022-10-01T05:33:05.042Z,96.30
2022-10-01T05:34:08.442Z,96.30
2022-10-01T05:35:11.978Z,96.30
2022-10-01T05:36:18.688Z,96.30
2022-10-01T05:37:22.730Z,96.30
2022-10-01T05:38:26.732Z,96.30
2022-10-01T05:39:29.581Z,96.30
2022-10-01T05:40:33.281Z,96.30
2022-10-01T05:41:41.211Z,96.30
2022-10-01T05:42:47.918Z,96.30
2022-10-01T05:43:51.297Z,96.30
2022-10-01T05:44:56.274Z,96.30
2022-10-01T05:46:01.950Z,96.30
2022-10-01T05:47:07.447Z,96.30
2022-10-01T05:48:10.238Z,96.30
2022-10-01T05:49:14.295Z,96.30
2022-10-01T05:50:19.815Z,96.30
2022-10-01T05:51:23.488Z,96.30
2022-10-01T05:52:27.467Z,96.30
2022-10-01T05:53:31.421Z,96.30
2022-10-01T05:54:34.511Z,96.30
2022-10-01T05:55:38.683Z,96.30
2022-10-01T05:56:41.870Z,96.30
2022-10-01T05:57:45.478Z,96.30
2022-10-01T05:58:48.989Z,96.30
2022-10-01T05:59:54.305Z,96.30
2022-10-01T06:00:57.762Z,96.30
2022-10-01T06:02:00.904Z,96.30
2022-10-01T06:03:06.725Z,96.30
2022-10-01T06:04:10.553Z,96.30
2022-10-01T06:05:14.445Z,96.30
2022-10-01T06:06:23.635Z,96.30
2022-10-01T06:07:31.097Z,96.30
2022-10-01T06:08:37.056Z,96.30
2022-10-01T06:09:41.073Z,96.30
2022-10-01T06:10:45.038Z,96.30
2022-10-01T06:11:49.289Z,96.30
2022-10-01T06:12:53.394Z,96.30
2022-10-01T06:13:56.370Z,96.30
2022-10-01T06:15:00.659Z,96.30
2022-10-01T06:16:04.885Z,96.30
2022-10-01T06:17:10.400Z,96.30
2022-10-01T06:18:14.548Z,96.30
2022-10-01T06:19:19.940Z,96.30
2022-10-01T06:20:22.369Z,96.30
2022-10-01T06:21:26.341Z,96.30
2022-10-01T06:22:30.897Z,96.30
2022-10-01T06:23:34.662Z,96.30
2022-10-01T06:24:37.474Z,96.30
2022-10-01T06:25:42.889Z,96.30
2022-10-01T06:26:48.671Z,96.30
2022-10-01T06:27:58.356Z,96.30
2022-10-01T06:29:03.553Z,96.30
2022-10-01T06:30:08.506Z,96.30
2022-10-01T06:31:13.412Z,96.30
2022-10-01T06:32:19.765Z,96.30
2022-10-01T06:33:23.382Z,96.30
2022-10-01T06:34:26.481Z,96.30
2022-10-01T06:35:30.845Z,96.30
2022-10-01T06:36:35.886Z,96.30
2022-10-01T06:37:41.303Z,96.30
2022-10-01T06:38:45.480Z,96.30
2022-10-01T06:39:48.296Z,96.30
2022-10-01T06:40:56.426Z,96.30
2022-10-01T06:41:59.148Z,96.30
2022-10-01T06:43:07.825Z,96.30
2022-10-01T06:44:14.441Z,96.30
2022-10-01T06:45:18.511Z,96.30
2022-10-01T06:46:22.725Z,96.30
2022-10-01T06:47:25.467Z,96.30
2022-10-01T06:48:31.739Z,96.30
2022-10-01T06:49:37.506Z,96.30
2022-10-01T06:50:46.010Z,96.30
2022-10-01T06:52:07.149Z,96.30
2022-10-01T06:53:13.155Z,96.30
2022-10-01T06:54:18.190Z,96.30
2022-10-01T06:55:26.772Z,96.30
2022-10-01T06:56:35.375Z,96.20
2022-10-01T06:57:39.083Z,96.30
2022-10-01T06:58:42.710Z,96.30
2022-10-01T06:59:47.669Z,96.30
2022-10-01T07:00:52.624Z,96.30
2022-10-01T07:01:59.052Z,96.30
2022-10-01T07:03:03.456Z,96.30
2022-10-01T07:04:06.724Z,96.30
2022-10-01T07:05:15.090Z,96.30
2022-10-01T07:06:18.257Z,96.30
2022-10-01T07:07:28.186Z,96.30
2022-10-01T07:08:36.970Z,96.30
2022-10-01T07:09:40.229Z,96.30
2022-10-01T07:10:46.016Z,96.30
2022-10-01T07:11:49.279Z,96.30
2022-10-01T07:12:53.388Z,96.30
2022-10-01T07:13:57.946Z,96.30
2022-10-01T07:15:04.142Z,96.30
2022-10-01T07:16:07.579Z,96.30
2022-10-01T07:17:13.249Z,96.30
2022-10-01T07:18:19.826Z,96.30
2022-10-01T07:19:24.935Z,96.30
2022-10-01T07:20:33.604Z,96.30
2022-10-01T07:21:39.620Z,96.30
2022-10-01T07:22:44.174Z,96.30
2022-10-01T07:23:51.650Z,96.30
2022-10-01T07:24:55.523Z,96.30
2022-10-01T07:25:59.958Z,96.30
2022-10-01T07:27:07.339Z,96.30
2022-10-01T07:28:18.327Z,96.30
2022-10-01T07:29:21.911Z,96.30
2022-10-01T07:30:26.259Z,96.30
2022-10-01T07:31:30.677Z,96.30
2022-10-01T07:32:35.611Z,96.30
2022-10-01T07:33:41.542Z,96.30
2022-10-01T07:34:45.701Z,96.30
2022-10-01T07:35:49.338Z,96.30
2022-10-01T07:36:54.325Z,96.30
2022-10-01T07:38:00.303Z,96.30
2022-10-01T07:39:06.422Z,96.30
2022-10-01T07:40:10.985Z,96.30
2022-10-01T07:41:50.015Z,96.30
2022-10-01T07:42:54.790Z,96.30
2022-10-01T07:43:59.527Z,96.30
2022-10-01T07:45:04.245Z,96.30
2022-10-01T07:46:09.853Z,96.30
2022-10-01T07:47:12.943Z,96.30
2022-10-01T07:48:18.027Z,96.30
2022-10-01T07:49:21.127Z,96.30
2022-10-01T07:50:27.041Z,96.30
2022-10-01T07:51:31.407Z,96.30
2022-10-01T07:52:36.789Z,96.30
2022-10-01T07:53:40.412Z,96.30
2022-10-01T07:54:49.213Z,96.30
2022-10-01T07:55:55.593Z,96.30
2022-10-01T07:57:13.399Z,96.30
2022-10-01T07:58:18.979Z,96.30
2022-10-01T07:59:25.269Z,96.30
2022-10-01T08:00:37.791Z,96.30
2022-10-01T08:01:44.324Z,96.30
2022-10-01T08:02:57.556Z,96.30
2022-10-01T08:04:01.564Z,96.30
2022-10-01T08:05:20.436Z,96.30
2022-10-01T08:06:25.900Z,96.30
2022-10-01T08:07:32.009Z,96.30
2022-10-01T08:08:36.056Z,96.30
2022-10-01T08:09:39.917Z,96.30
2022-10-01T08:10:48.822Z,96.30
2022-10-01T08:11:51.258Z,96.30
2022-10-01T08:13:01.510Z,96.30
2022-10-01T08:14:05.143Z,96.30
2022-10-01T08:15:15.669Z,96.30
2022-10-01T08:16:18.976Z,96.30
2022-10-01T08:17:29.468Z,96.30
2022-10-01T08:18:34.484Z,96.30
2022-10-01T08:19:40.340Z,96.30
2022-10-01T08:20:44.394Z,96.30
2022-10-01T08:21:48.012Z,96.30
2022-10-01T08:22:52.551Z,96.30
2022-10-01T08:23:58.124Z,96.30
2022-10-01T08:25:02.393Z,96.30
2022-10-01T08:26:08.764Z,96.30
2022-10-01T08:27:13.044Z,96.30
2022-10-01T08:28:17.928Z,96.30
2022-10-01T08:29:21.360Z,96.30
2022-10-01T08:30:25.777Z,96.30
2022-10-01T08:31:30.102Z,96.30
2022-10-01T08:32:34.262Z,96.30
2022-10-01T08:33:38.597Z,96.30
2022-10-01T08:34:43.292Z,96.30
2022-10-01T08:35:50.376Z,96.30
2022-10-01T08:36:55.666Z,96.30
2022-10-01T08:38:03.385Z,96.30
2022-10-01T08:39:07.600Z,96.30
2022-10-01T08:40:12.811Z,95.50
2022-10-01T08:41:39.589Z,94.80
2022-10-01T08:43:00.236Z,93.60
2022-10-01T08:44:08.586Z,92.30
2022-10-01T08:45:22.014Z,91.30
2022-10-01T08:46:31.366Z,90.40
2022-10-01T08:47:39.989Z,89.40
2022-10-01T08:48:59.362Z,88.60
2022-10-01T08:50:14.563Z,88.00
2022-10-01T08:51:29.482Z,86.40
2022-10-01T08:52:42.551Z,85.10
2022-10-01T08:53:56.192Z,84.80
2022-10-01T08:55:05.874Z,83.80
2022-10-01T08:56:19.236Z,83.20
2022-10-01T08:57:31.825Z,83.40
2022-10-01T08:58:47.213Z,83.30
2022-10-01T08:59:57.465Z,83.70
2022-10-01T09:01:00.379Z,82.70
2022-10-01T09:02:07.780Z,83.80
2022-10-01T09:03:16.243Z,84.60
2022-10-01T09:04:22.807Z,85.50
2022-10-01T09:05:37.511Z,86.60
2022-10-01T09:06:40.435Z,87.30
2022-10-01T09:08:02.525Z,88.60
2022-10-01T09:09:41.317Z,88.50
2022-10-01T09:10:49.834Z,89.80
2022-10-01T09:12:12.594Z,90.80
2022-10-01T09:13:39.726Z,92.30
2022-10-01T09:14:58.821Z,93.30
2022-10-01T09:16:12.858Z,94.20
2022-10-01T09:17:43.344Z,95.30
2022-10-01T09:18:58.684Z,95.50
2022-10-01T09:20:16.244Z,94.30
2022-10-01T09:21:24.701Z,94.10
2022-10-01T09:22:42.324Z,92.90
2022-10-01T09:24:02.421Z,91.80
2022-10-01T09:25:14.641Z,90.40
2022-10-01T09:26:21.348Z,89.00
2022-10-01T09:27:31.602Z,88.20
2022-10-01T09:28:40.291Z,87.10
2022-10-01T09:29:51.975Z,86.30
2022-10-01T09:31:02.095Z,85.90
2022-10-01T09:32:06.848Z,84.40
2022-10-01T09:33:17.718Z,84.00
2022-10-01T09:34:31.181Z,82.60
2022-10-01T09:35:44.294Z,82.40
2022-10-01T09:37:06.016Z,82.30
2022-10-01T09:38:20.006Z,82.40
2022-10-01T09:39:30.626Z,82.40
2022-10-01T09:40:46.803Z,83.00
2022-10-01T09:41:49.800Z,83.60
2022-10-01T09:42:54.215Z,84.60
2022-10-01T09:43:58.424Z,85.70
2022-10-01T09:45:02.407Z,87.40
2022-10-01T09:46:14.279Z,88.00
2022-10-01T09:47:21.104Z,89.60
2022-10-01T09:48:35.679Z,90.30
2022-10-01T09:49:44.109Z,90.40
2022-10-01T09:50:55.679Z,90.50
2022-10-01T09:52:09.924Z,89.90
2022-10-01T09:53:19.634Z,89.30
2022-10-01T09:54:33.868Z,88.40
2022-10-01T09:55:40.765Z,87.90
2022-10-01T09:56:52.113Z,85.80
2022-10-01T09:58:01.744Z,85.60
2022-10-01T09:59:14.922Z,84.60
2022-10-01T10:00:23.182Z,83.40
2022-10-01T10:01:40.631Z,81.50
2022-10-01T10:02:49.215Z,81.50
2022-10-01T10:03:58.615Z,81.90
2022-10-01T10:05:01.921Z,82.80
2022-10-01T10:06:09.402Z,83.70
2022-10-01T10:07:19.961Z,83.90
2022-10-01T10:08:31.650Z,85.30
2022-10-01T10:09:37.936Z,86.40
2022-10-01T10:10:51.688Z,87.50
2022-10-01T10:11:56.588Z,87.10
2022-10-01T10:13:04.998Z,86.40
2022-10-01T10:14:20.716Z,85.70
2022-10-01T10:15:28.194Z,83.60
2022-10-01T10:16:37.101Z,83.50
2022-10-01T10:17:44.259Z,83.40
2022-10-01T10:18:52.480Z,83.90
2022-10-01T10:19:56.720Z,83.90
2022-10-01T10:21:02.455Z,83.70
2022-10-01T10:22:14.650Z,83.50
2022-10-01T10:23:23.965Z,84.00
2022-10-01T10:24:33.143Z,84.30
2022-10-01T10:25:36.858Z,83.70
2022-10-01T10:26:43.482Z,83.80
2022-10-01T10:27:55.797Z,83.60
2022-10-01T10:29:01.802Z,83.60
2022-10-01T10:30:16.700Z,83.80
2022-10-01T10:31:24.329Z,84.00
2022-10-01T10:32:28.254Z,83.50
2022-10-01T10:33:32.326Z,84.40
2022-10-01T10:34:39.512Z,82.50
2022-10-01T10:35:43.966Z,83.50
2022-10-01T10:36:49.041Z,83.60
2022-10-01T10:37:55.233Z,84.10
2022-10-01T10:39:00.343Z,85.10
2022-10-01T10:40:08.988Z,85.70
2022-10-01T10:41:19.554Z,86.10
2022-10-01T10:42:24.469Z,86.90
2022-10-01T10:43:34.847Z,88.20
2022-10-01T10:44:40.109Z,87.70
2022-10-01T10:45:48.293Z,87.80
2022-10-01T10:47:00.571Z,88.30
2022-10-01T10:48:07.569Z,87.80
2022-10-01T10:49:23.558Z,87.80
2022-10-01T10:50:32.822Z,87.00
2022-10-01T10:51:51.564Z,87.50
2022-10-01T10:52:54.405Z,86.80
2022-10-01T10:54:00.831Z,86.00
2022-10-01T10:55:25.096Z,85.90
2022-10-01T10:56:27.615Z,86.00
2022-10-01T10:57:34.613Z,84.10
2022-10-01T10:58:44.843Z,84.90
2022-10-01T11:00:00.825Z,85.00
2022-10-01T11:01:16.803Z,84.20
2022-10-01T11:02:23.889Z,85.00
2022-10-01T11:03:32.186Z,84.70
2022-10-01T11:04:44.293Z,84.90
2022-10-01T11:05:51.702Z,85.20
2022-10-01T11:07:01.181Z,85.10
2022-10-01T11:08:07.988Z,87.40
2022-10-01T11:09:13.183Z,88.30
2022-10-01T11:10:30.323Z,88.70
2022-10-01T11:11:49.017Z,89.70
2022-10-01T11:14:00.289Z,89.90
2022-10-01T11:15:38.316Z,90.60
2022-10-01T11:17:13.576Z,91.20
2022-10-01T11:18:34.551Z,93.50
2022-10-01T11:19:59.955Z,92.90
2022-10-01T11:21:23.115Z,91.80
2022-10-01T11:22:44.150Z,92.90
2022-10-01T11:24:09.435Z,93.10
2022-10-01T11:25:38.317Z,93.10
2022-10-01T11:26:51.675Z,93.90
2022-10-01T11:28:11.243Z,94.40
2022-10-01T11:29:32.410Z,93.50
2022-10-01T11:30:46.935Z,93.20
2022-10-01T11:32:04.761Z,93.40
2022-10-01T11:33:21.026Z,93.60
2022-10-01T11:34:57.175Z,92.60
2022-10-01T11:36:08.432Z,93.40
2022-10-01T11:37:18.615Z,93.70
2022-10-01T11:38:51.096Z,93.90
2022-10-01T11:39:58.821Z,93.50
2022-10-01T11:41:19.056Z,93.40
2022-10-01T11:42:35.096Z,93.80
2022-10-01T11:43:52.150Z,93.70
2022-10-01T11:45:04.328Z,93.80
2022-10-01T11:46:12.936Z,93.10
2022-10-01T11:47:25.534Z,93.20
2022-10-01T11:48:36.723Z,93.10
2022-10-01T11:49:50.587Z,93.80
2022-10-01T11:50:57.467Z,93.90
2022-10-01T11:52:10.515Z,93.60
2022-10-01T11:53:23.226Z,94.20
2022-10-01T11:54:31.406Z,95.50
2022-10-01T11:56:01.419Z,96.00
2022-10-01T11:57:26.815Z,96.30
2022-10-01T11:58:55.331Z,96.30
2022-10-01T12:00:07.602Z,96.30
2022-10-01T12:01:21.053Z,96.30
2022-10-01T12:02:36.756Z,96.30
2022-10-01T12:04:02.475Z,96.30
2022-10-01T12:05:11.223Z,96.30
2022-10-01T12:06:15.296Z,96.30
2022-10-01T12:07:27.147Z,96.30
2022-10-01T12:08:34.968Z,96.30
2022-10-01T12:09:50.261Z,96.30
2022-10-01T12:11:00.047Z,96.30
2022-10-01T12:12:09.036Z,96.30
2022-10-01T12:13:22.391Z,96.30
2022-10-01T12:14:34.946Z,96.30
2022-10-01T12:15:47.442Z,96.30
2022-10-01T12:16:57.464Z,96.30
2022-10-01T12:18:10.447Z,96.30
2022-10-01T12:19:21.499Z,95.50
2022-10-01T12:20:31.774Z,95.90
2022-10-01T12:21:40.465Z,95.10
2022-10-01T12:22:48.727Z,94.80
2022-10-01T12:23:57.594Z,94.90
2022-10-01T12:25:01.284Z,94.90
2022-10-01T12:26:14.842Z,94.90
2022-10-01T12:27:41.805Z,95.40
2022-10-01T12:28:59.327Z,95.40
2022-10-01T12:30:20.615Z,94.90
2022-10-01T12:31:32.785Z,94.50
2022-10-01T12:33:04.806Z,94.00
2022-10-01T12:34:19.132Z,94.30
2022-10-01T12:35:49.692Z,95.00
2022-10-01T12:37:10.572Z,94.80
2022-10-01T12:38:28.591Z,94.50
2022-10-01T12:39:55.608Z,95.10
2022-10-01T12:41:11.536Z,94.90
2022-10-01T12:42:46.935Z,93.30
2022-10-01T12:44:24.018Z,93.50
2022-10-01T12:45:40.747Z,94.20
2022-10-01T12:46:57.424Z,93.50
2022-10-01T12:48:10.547Z,94.10
2022-10-01T12:49:27.720Z,94.70
2022-10-01T12:50:46.643Z,94.60
2022-10-01T12:51:56.680Z,95.30
2022-10-01T12:53:24.837Z,94.80
2022-10-01T12:54:54.091Z,95.90
2022-10-01T12:56:07.263Z,96.10
2022-10-01T12:57:26.932Z,96.30
2022-10-01T12:59:04.046Z,96.10
2022-10-01T13:00:16.810Z,96.30
2022-10-01T13:01:36.201Z,96.30
2022-10-01T13:03:37.545Z,96.30
2022-10-01T13:05:17.686Z,96.00
2022-10-01T13:06:34.559Z,96.30
2022-10-01T13:07:59.638Z,96.30
2022-10-01T13:09:14.081Z,96.30
2022-10-01T13:10:41.759Z,96.30
2022-10-01T13:12:13.986Z,96.30
2022-10-01T13:13:22.797Z,96.30
2022-10-01T13:14:27.437Z,96.30
2022-10-01T13:15:36.614Z,96.30
2022-10-01T13:16:54.395Z,96.30
2022-10-01T13:18:07.257Z,96.30
2022-10-01T13:19:18.486Z,96.30
2022-10-01T13:20:35.203Z,96.30
2022-10-01T13:21:57.892Z,96.30
2022-10-01T13:23:09.043Z,96.30
2022-10-01T13:24:21.272Z,96.30
2022-10-01T13:25:33.428Z,96.30
2022-10-01T13:26:47.989Z,96.30
2022-10-01T13:27:59.389Z,96.30
2022-10-01T13:29:20.318Z,96.30
2022-10-01T13:30:25.536Z,96.30
2022-10-01T13:31:41.409Z,96.30
2022-10-01T13:32:53.955Z,96.30
2022-10-01T13:33:57.971Z,96.30
2022-10-01T13:35:34.424Z,96.30
2022-10-01T13:36:38.413Z,96.30
2022-10-01T13:37:43.815Z,95.90
2022-10-01T13:38:47.598Z,96.30
2022-10-01T13:39:51.008Z,96.30
2022-10-01T13:41:00.243Z,96.30
2022-10-01T13:42:07.023Z,96.30
2022-10-01T13:43:18.237Z,96.30
2022-10-01T13:44:26.590Z,96.30
2022-10-01T13:45:40.358Z,96.30
2022-10-01T13:46:52.761Z,96.30
2022-10-01T13:48:15.945Z,96.30
2022-10-01T13:49:26.530Z,96.30
2022-10-01T13:50:30.414Z,96.30
2022-10-01T13:51:39.209Z,96.30
2022-10-01T13:52:41.814Z,96.30
2022-10-01T13:53:52.497Z,96.30
2022-10-01T13:54:56.767Z,96.30
2022-10-01T13:56:01.223Z,96.30
2022-10-01T13:57:10.763Z,96.30
2022-10-01T13:58:32.764Z,96.30
2022-10-01T13:59:38.952Z,95.60
2022-10-01T14:00:48.904Z,95.60
2022-10-01T14:01:52.494Z,94.50
2022-10-01T14:03:27.442Z,94.70
2022-10-01T14:04:40.094Z,95.40
2022-10-01T14:05:44.197Z,94.40
2022-10-01T14:06:54.435Z,94.50
2022-10-01T14:08:22.218Z,94.60
2022-10-01T14:09:30.439Z,94.20
2022-10-01T14:11:02.511Z,93.50
2022-10-01T14:12:27.314Z,94.30
2022-10-01T14:13:49.142Z,93.20
2022-10-01T14:15:14.243Z,93.60
2022-10-01T14:16:19.808Z,93.10
2022-10-01T14:17:26.596Z,93.20
2022-10-01T14:18:37.881Z,92.90
2022-10-01T14:19:47.125Z,91.00
2022-10-01T14:21:03.402Z,90.50
2022-10-01T14:23:01.380Z,90.30
2022-10-01T14:24:21.280Z,89.10
2022-10-01T14:25:45.523Z,86.70
2022-10-01T14:26:54.179Z,86.00
2022-10-01T14:28:17.489Z,85.20
2022-10-01T14:29:37.909Z,82.80
2022-10-01T14:30:53.580Z,82.10
2022-10-01T14:32:11.208Z,82.50
2022-10-01T14:33:39.275Z,82.80
2022-10-01T14:34:57.798Z,83.10
2022-10-01T14:36:09.776Z,82.80
2022-10-01T14:37:18.691Z,81.50
2022-10-01T14:38:22.320Z,81.00
2022-10-01T14:39:29.341Z,81.20
2022-10-01T14:40:39.230Z,80.60
2022-10-01T14:41:43.611Z,80.10
2022-10-01T14:42:59.687Z,79.90
2022-10-01T14:44:03.452Z,79.40
2022-10-01T14:45:17.428Z,79.40
2022-10-01T14:46:23.137Z,79.80
2022-10-01T14:47:34.896Z,79.70
2022-10-01T14:48:40.301Z,79.90
2022-10-01T14:49:42.725Z,79.80
2022-10-01T14:50:51.035Z,80.10